Etusivu
METAR-TAF:

METAR-TAF

Lentoasemat :

Wahoo, Nebraska, Yhdysvallat

Leveyspiiri: 41-14-26N, Pituuspiiri: 096-35-40W, korkeus merenpinnasta: 373 m

Tämänhetkinen sää

Tämä raportti tehtiin 16 minuuttia sitten, kello 16.35 UTC
tyyntä
Lämpötila 9°C
Kosteus 61%
Ilmanpaine 1006 hPa
Näkyvyys: 16.1 km
Hajanaisia pilviä 6000 ft:n korkeudessa
Pilvistä 7500 ft:n korkeudessa

METAR: KAHQ 181635Z AUTO 00000KT 10SM SCT060 OVC075 09/02 A2972 RMK AO2 T00900015

Aika: 10:51 (16:51 UTC)


TAF: puuttuu

Säähavainnot ja -ennusteet yli 4000 lentoasemalta (METAR- ja TAF-raportit).

Käytössä olevat sääasemat on merkitty karttaan keltaisilla ja punaisilla pisteillä.

Aseta hiiri pisteen päälle nähdäksesi sääaseman nimen.

Klikkaa sitten nähdäksesi säähavainnot ja -ennusteet.

Kartan vaihtaminen: klikkaa mustalla rastilla varustettuja vihreitä pisteitä, niin voit zoomata sisään; viivalla varustettua vihreää pistettä, niin voit zoomata ulos tai vihreitä nuolia, niin pääset viereisille kartoille.


METAR-TAF: